sensor_id;sensor_type;location;lat;lon;timestamp;pressure;altitude;pressure_sealevel;temperature;humidity
64616;BME280;51027;42.162;24.754;2022-09-20T00:01:35;99608.94;;;14.60;58.52
64616;BME280;51027;42.162;24.754;2022-09-20T00:04:19;99600.94;;;14.62;58.84
64616;BME280;51027;42.162;24.754;2022-09-20T00:07:02;99608.63;;;14.51;58.78
64616;BME280;51027;42.162;24.754;2022-09-20T00:10:05;99616.47;;;14.36;59.48
64616;BME280;51027;42.162;24.754;2022-09-20T00:12:31;99613.63;;;14.39;59.57
64616;BME280;51027;42.162;24.754;2022-09-20T00:15:09;99617.31;;;14.37;59.85
64616;BME280;51027;42.162;24.754;2022-09-20T00:17:38;99608.28;;;14.41;59.83
64616;BME280;51027;42.162;24.754;2022-09-20T00:20:04;99610.13;;;14.39;59.75
64616;BME280;51027;42.162;24.754;2022-09-20T00:22:36;99600.94;;;14.46;59.18
64616;BME280;51027;42.162;24.754;2022-09-20T00:25:25;99611.16;;;14.36;59.15
64616;BME280;51027;42.162;24.754;2022-09-20T00:27:50;99603.75;;;14.43;59.21
64616;BME280;51027;42.162;24.754;2022-09-20T00:30:19;99603.41;;;14.49;59.12
64616;BME280;51027;42.162;24.754;2022-09-20T00:32:45;99588.78;;;14.42;59.17
64616;BME280;51027;42.162;24.754;2022-09-20T00:35:17;99594.69;;;14.47;59.10
64616;BME280;51027;42.162;24.754;2022-09-20T00:37:45;99604.75;;;14.40;59.24
64616;BME280;51027;42.162;24.754;2022-09-20T00:40:22;99597.16;;;14.34;59.18
64616;BME280;51027;42.162;24.754;2022-09-20T00:43:08;99604.16;;;14.35;59.64
64616;BME280;51027;42.162;24.754;2022-09-20T00:56:14;99611.78;;;14.41;59.12
64616;BME280;51027;42.162;24.754;2022-09-20T00:58:48;99601.94;;;14.44;59.23
64616;BME280;51027;42.162;24.754;2022-09-20T01:01:15;99592.97;;;14.46;59.44
64616;BME280;51027;42.162;24.754;2022-09-20T01:03:47;99601.09;;;14.43;59.25
64616;BME280;51027;42.162;24.754;2022-09-20T01:06:15;99588.44;;;14.32;59.80
64616;BME280;51027;42.162;24.754;2022-09-20T01:08:48;99590.56;;;14.26;60.04
64616;BME280;51027;42.162;24.754;2022-09-20T01:11:15;99589.91;;;14.22;60.58
64616;BME280;51027;42.162;24.754;2022-09-20T01:13:41;99590.38;;;14.29;60.63
64616;BME280;51027;42.162;24.754;2022-09-20T01:16:07;99584.31;;;14.27;60.53
64616;BME280;51027;42.162;24.754;2022-09-20T01:18:35;99595.97;;;14.24;60.88
64616;BME280;51027;42.162;24.754;2022-09-20T01:21:06;99595.78;;;14.27;61.18
64616;BME280;51027;42.162;24.754;2022-09-20T01:29:23;99593.03;;;13.97;62.31
64616;BME280;51027;42.162;24.754;2022-09-20T01:31:57;99585.84;;;13.99;62.42
64616;BME280;51027;42.162;24.754;2022-09-20T01:34:34;99599.19;;;13.98;62.33
64616;BME280;51027;42.162;24.754;2022-09-20T01:37:04;99584.09;;;14.00;62.06
64616;BME280;51027;42.162;24.754;2022-09-20T01:39:49;99598.25;;;13.99;62.18
64616;BME280;51027;42.162;24.754;2022-09-20T01:42:32;99596.63;;;13.96;62.22
64616;BME280;51027;42.162;24.754;2022-09-20T01:47:35;99596.13;;;13.90;62.51
64616;BME280;51027;42.162;24.754;2022-09-20T02:04:48;99601.19;;;13.77;61.96
64616;BME280;51027;42.162;24.754;2022-09-20T02:22:30;99609.22;;;13.42;62.24
64616;BME280;51027;42.162;24.754;2022-09-20T02:28:40;99616.69;;;13.34;61.42
64616;BME280;51027;42.162;24.754;2022-09-20T02:31:54;99623.53;;;13.38;61.48
64616;BME280;51027;42.162;24.754;2022-09-20T02:34:45;99628.81;;;13.38;60.98
64616;BME280;51027;42.162;24.754;2022-09-20T02:40:05;99626.28;;;13.19;61.06
64616;BME280;51027;42.162;24.754;2022-09-20T02:42:37;99607.44;;;13.08;61.01
64616;BME280;51027;42.162;24.754;2022-09-20T02:45:19;99635.63;;;13.08;61.04
64616;BME280;51027;42.162;24.754;2022-09-20T02:47:47;99637.38;;;13.09;60.87
64616;BME280;51027;42.162;24.754;2022-09-20T02:50:30;99630.63;;;13.20;60.70
64616;BME280;51027;42.162;24.754;2022-09-20T03:01:58;99650.97;;;13.01;61.29
64616;BME280;51027;42.162;24.754;2022-09-20T03:18:37;99665.53;;;13.10;61.74
64616;BME280;51027;42.162;24.754;2022-09-20T03:30:12;99659.72;;;12.84;62.87
64616;BME280;51027;42.162;24.754;2022-09-20T03:38:17;99669.38;;;12.66;62.83
64616;BME280;51027;42.162;24.754;2022-09-20T03:41:05;99665.91;;;12.66;62.65
64616;BME280;51027;42.162;24.754;2022-09-20T03:46:24;99666.38;;;12.57;63.18
64616;BME280;51027;42.162;24.754;2022-09-20T03:57:27;99672.19;;;12.63;62.89
64616;BME280;51027;42.162;24.754;2022-09-20T04:19:47;99698.19;;;12.73;62.47
64616;BME280;51027;42.162;24.754;2022-09-20T04:22:07;99689.25;;;12.75;61.91
64616;BME280;51027;42.162;24.754;2022-09-20T04:25:03;99697.97;;;12.77;62.03
64616;BME280;51027;42.162;24.754;2022-09-20T04:28:01;99702.59;;;12.72;62.02
64616;BME280;51027;42.162;24.754;2022-09-20T04:30:25;99696.38;;;12.73;61.95
64616;BME280;51027;42.162;24.754;2022-09-20T04:33:00;99694.16;;;12.83;61.85
64616;BME280;51027;42.162;24.754;2022-09-20T04:38:17;99704.53;;;12.87;61.76
64616;BME280;51027;42.162;24.754;2022-09-20T04:58:36;99719.78;;;13.00;60.62
64616;BME280;51027;42.162;24.754;2022-09-20T05:12:34;99721.19;;;13.43;59.42
64616;BME280;51027;42.162;24.754;2022-09-20T05:15:43;99727.25;;;13.45;59.38
64616;BME280;51027;42.162;24.754;2022-09-20T05:21:09;99734.56;;;13.57;59.09
64616;BME280;51027;42.162;24.754;2022-09-20T05:23:45;99727.50;;;13.75;58.95
64616;BME280;51027;42.162;24.754;2022-09-20T05:30:04;99732.84;;;13.91;58.87
64616;BME280;51027;42.162;24.754;2022-09-20T05:35:42;99730.97;;;13.58;59.00
64616;BME280;51027;42.162;24.754;2022-09-20T05:38:42;99729.50;;;13.35;60.05
64616;BME280;51027;42.162;24.754;2022-09-20T05:44:14;99736.69;;;13.50;59.97
64616;BME280;51027;42.162;24.754;2022-09-20T05:52:54;99749.38;;;13.61;60.07
64616;BME280;51027;42.162;24.754;2022-09-20T06:00:53;99748.59;;;14.09;58.67
64616;BME280;51027;42.162;24.754;2022-09-20T06:06:11;99741.09;;;14.02;58.69
64616;BME280;51027;42.162;24.754;2022-09-20T06:14:24;99755.00;;;14.05;58.41
64616;BME280;51027;42.162;24.754;2022-09-20T06:17:24;99752.06;;;14.11;58.42
64616;BME280;51027;42.162;24.754;2022-09-20T06:22:45;99755.00;;;14.05;57.08
64616;BME280;51027;42.162;24.754;2022-09-20T06:25:27;99732.22;;;13.86;56.74
64616;BME280;51027;42.162;24.754;2022-09-20T06:28:15;99763.72;;;14.07;56.65
64616;BME280;51027;42.162;24.754;2022-09-20T06:30:52;99752.91;;;14.12;56.61
64616;BME280;51027;42.162;24.754;2022-09-20T06:33:22;99765.69;;;14.37;55.47
64616;BME280;51027;42.162;24.754;2022-09-20T06:39:25;99774.19;;;14.44;55.44
64616;BME280;51027;42.162;24.754;2022-09-20T06:42:15;99776.13;;;14.40;54.76
64616;BME280;51027;42.162;24.754;2022-09-20T06:44:40;99778.94;;;14.37;54.73
64616;BME280;51027;42.162;24.754;2022-09-20T06:47:11;99778.84;;;14.38;55.12
64616;BME280;51027;42.162;24.754;2022-09-20T06:49:37;99779.72;;;14.39;54.96
64616;BME280;51027;42.162;24.754;2022-09-20T06:52:06;99780.47;;;14.25;55.43
64616;BME280;51027;42.162;24.754;2022-09-20T06:54:32;99789.84;;;13.98;55.33
64616;BME280;51027;42.162;24.754;2022-09-20T06:56:59;99782.91;;;14.12;54.69
64616;BME280;51027;42.162;24.754;2022-09-20T06:59:27;99779.63;;;14.40;53.60
64616;BME280;51027;42.162;24.754;2022-09-20T07:01:53;99780.59;;;14.73;53.09
64616;BME280;51027;42.162;24.754;2022-09-20T07:04:18;99771.06;;;14.53;51.78
64616;BME280;51027;42.162;24.754;2022-09-20T07:06:43;99783.16;;;14.41;52.21
64616;BME280;51027;42.162;24.754;2022-09-20T07:09:10;99787.25;;;14.80;52.90
64616;BME280;51027;42.162;24.754;2022-09-20T07:11:35;99784.97;;;15.05;51.93
64616;BME280;51027;42.162;24.754;2022-09-20T07:14:01;99785.44;;;15.12;51.08
64616;BME280;51027;42.162;24.754;2022-09-20T07:16:27;99776.41;;;15.16;50.40
64616;BME280;51027;42.162;24.754;2022-09-20T07:18:53;99782.28;;;15.21;50.53
64616;BME280;51027;42.162;24.754;2022-09-20T07:21:19;99787.50;;;15.38;50.20
64616;BME280;51027;42.162;24.754;2022-09-20T07:23:45;99788.44;;;15.21;50.09
64616;BME280;51027;42.162;24.754;2022-09-20T07:26:24;99765.88;;;14.83;50.43
64616;BME280;51027;42.162;24.754;2022-09-20T07:28:50;99787.19;;;14.97;50.89
64616;BME280;51027;42.162;24.754;2022-09-20T07:31:17;99790.19;;;15.07;51.00
64616;BME280;51027;42.162;24.754;2022-09-20T07:33:43;99789.75;;;14.98;51.24
64616;BME280;51027;42.162;24.754;2022-09-20T07:36:09;99791.50;;;15.45;50.20
64616;BME280;51027;42.162;24.754;2022-09-20T07:38:36;99771.81;;;15.49;49.26
64616;BME280;51027;42.162;24.754;2022-09-20T07:41:02;99784.22;;;15.65;48.36
64616;BME280;51027;42.162;24.754;2022-09-20T07:43:29;99775.88;;;15.71;48.75
64616;BME280;51027;42.162;24.754;2022-09-20T07:45:55;99793.59;;;15.86;48.51
64616;BME280;51027;42.162;24.754;2022-09-20T07:48:31;99780.34;;;16.15;48.15
64616;BME280;51027;42.162;24.754;2022-09-20T07:51:01;99780.94;;;16.48;47.21
64616;BME280;51027;42.162;24.754;2022-09-20T07:53:28;99786.25;;;16.48;47.00
64616;BME280;51027;42.162;24.754;2022-09-20T07:56:02;99772.94;;;16.05;47.66
64616;BME280;51027;42.162;24.754;2022-09-20T07:58:31;99772.88;;;16.35;47.37
64616;BME280;51027;42.162;24.754;2022-09-20T08:01:00;99779.59;;;16.84;46.90
64616;BME280;51027;42.162;24.754;2022-09-20T08:03:28;99778.31;;;17.04;45.91
64616;BME280;51027;42.162;24.754;2022-09-20T08:08:34;99783.59;;;17.45;44.87
64616;BME280;51027;42.162;24.754;2022-09-20T08:11:13;99779.06;;;17.20;45.35
64616;BME280;51027;42.162;24.754;2022-09-20T08:13:45;99770.16;;;17.07;45.45
64616;BME280;51027;42.162;24.754;2022-09-20T08:16:12;99776.56;;;17.44;45.13
64616;BME280;51027;42.162;24.754;2022-09-20T08:18:43;99763.06;;;17.47;44.64
64616;BME280;51027;42.162;24.754;2022-09-20T08:21:10;99768.09;;;17.78;44.35
64616;BME280;51027;42.162;24.754;2022-09-20T08:23:38;99750.31;;;18.04;44.10
64616;BME280;51027;42.162;24.754;2022-09-20T08:26:06;99754.03;;;18.14;44.06
64616;BME280;51027;42.162;24.754;2022-09-20T08:28:32;99751.69;;;17.97;44.71
64616;BME280;51027;42.162;24.754;2022-09-20T08:33:31;99727.28;;;18.03;43.24
64616;BME280;51027;42.162;24.754;2022-09-20T08:35:57;99732.16;;;18.35;43.03
64616;BME280;51027;42.162;24.754;2022-09-20T08:38:23;99710.53;;;18.14;42.17
64616;BME280;51027;42.162;24.754;2022-09-20T08:40:55;99733.16;;;18.21;42.21
64616;BME280;51027;42.162;24.754;2022-09-20T08:43:25;99740.72;;;18.40;41.69
64616;BME280;51027;42.162;24.754;2022-09-20T08:45:57;99723.84;;;19.02;41.14
64616;BME280;51027;42.162;24.754;2022-09-20T08:48:27;99716.03;;;18.62;39.36
64616;BME280;51027;42.162;24.754;2022-09-20T08:51:02;99732.56;;;18.54;39.64
64616;BME280;51027;42.162;24.754;2022-09-20T08:53:31;99728.97;;;18.42;40.26
64616;BME280;51027;42.162;24.754;2022-09-20T08:55:58;99725.56;;;18.02;40.27
64616;BME280;51027;42.162;24.754;2022-09-20T08:58:27;99725.66;;;18.39;39.18
64616;BME280;51027;42.162;24.754;2022-09-20T09:00:53;99720.22;;;18.40;40.04
64616;BME280;51027;42.162;24.754;2022-09-20T09:03:23;99706.63;;;18.56;39.56
64616;BME280;51027;42.162;24.754;2022-09-20T09:05:54;99708.97;;;18.74;39.34
64616;BME280;51027;42.162;24.754;2022-09-20T09:08:32;99719.41;;;18.77;38.40
64616;BME280;51027;42.162;24.754;2022-09-20T09:11:05;99727.75;;;18.59;38.61
64616;BME280;51027;42.162;24.754;2022-09-20T09:13:53;99714.50;;;18.83;38.85
64616;BME280;51027;42.162;24.754;2022-09-20T09:16:22;99711.47;;;18.88;38.34
64616;BME280;51027;42.162;24.754;2022-09-20T09:18:48;99696.97;;;18.79;39.49
64616;BME280;51027;42.162;24.754;2022-09-20T09:21:34;99703.22;;;19.39;38.34
64616;BME280;51027;42.162;24.754;2022-09-20T09:24:13;99706.94;;;19.25;38.03
64616;BME280;51027;42.162;24.754;2022-09-20T09:26:41;99693.78;;;19.46;37.50
64616;BME280;51027;42.162;24.754;2022-09-20T09:29:16;99699.44;;;19.30;37.88
64616;BME280;51027;42.162;24.754;2022-09-20T09:31:47;99700.53;;;19.27;37.41
64616;BME280;51027;42.162;24.754;2022-09-20T09:34:25;99703.53;;;19.23;38.01
64616;BME280;51027;42.162;24.754;2022-09-20T09:36:51;99698.41;;;19.20;37.94
64616;BME280;51027;42.162;24.754;2022-09-20T09:41:48;99672.03;;;19.39;36.43
64616;BME280;51027;42.162;24.754;2022-09-20T09:44:26;99690.59;;;19.41;37.16
64616;BME280;51027;42.162;24.754;2022-09-20T09:46:53;99681.50;;;19.32;37.64
64616;BME280;51027;42.162;24.754;2022-09-20T09:54:34;99684.22;;;19.19;37.45
64616;BME280;51027;42.162;24.754;2022-09-20T09:57:16;99679.53;;;19.58;37.78
64616;BME280;51027;42.162;24.754;2022-09-20T10:00:09;99672.91;;;19.75;38.03
64616;BME280;51027;42.162;24.754;2022-09-20T10:03:06;99671.47;;;20.16;37.58
64616;BME280;51027;42.162;24.754;2022-09-20T10:25:47;99658.50;;;20.88;35.30
64616;BME280;51027;42.162;24.754;2022-09-20T10:36:25;99634.06;;;20.81;34.95
64616;BME280;51027;42.162;24.754;2022-09-20T10:39:16;99646.91;;;20.98;34.61
64616;BME280;51027;42.162;24.754;2022-09-20T10:47:17;99648.16;;;20.83;34.93
64616;BME280;51027;42.162;24.754;2022-09-20T11:08:32;99614.22;;;21.16;33.61
64616;BME280;51027;42.162;24.754;2022-09-20T11:11:04;99608.44;;;21.32;33.77
64616;BME280;51027;42.162;24.754;2022-09-20T11:18:42;99603.34;;;20.64;33.97
64616;BME280;51027;42.162;24.754;2022-09-20T11:21:51;99608.66;;;20.76;34.19
64616;BME280;51027;42.162;24.754;2022-09-20T11:32:40;99603.09;;;20.67;33.97
64616;BME280;51027;42.162;24.754;2022-09-20T11:37:39;99597.03;;;20.65;34.50
64616;BME280;51027;42.162;24.754;2022-09-20T11:40:21;99588.50;;;20.92;34.42
64616;BME280;51027;42.162;24.754;2022-09-20T11:42:50;99581.53;;;21.22;33.78
64616;BME280;51027;42.162;24.754;2022-09-20T11:45:18;99588.06;;;21.40;33.53
64616;BME280;51027;42.162;24.754;2022-09-20T11:47:50;99583.44;;;21.10;32.18
64616;BME280;51027;42.162;24.754;2022-09-20T11:56:06;99558.22;;;21.13;32.20
64616;BME280;51027;42.162;24.754;2022-09-20T11:58:49;99567.81;;;21.26;32.50
64616;BME280;51027;42.162;24.754;2022-09-20T12:01:26;99549.63;;;21.30;32.61
64616;BME280;51027;42.162;24.754;2022-09-20T12:03:55;99567.28;;;21.00;31.37
64616;BME280;51027;42.162;24.754;2022-09-20T12:06:33;99561.66;;;21.04;32.31
64616;BME280;51027;42.162;24.754;2022-09-20T12:09:04;99564.22;;;21.37;32.00
64616;BME280;51027;42.162;24.754;2022-09-20T12:11:35;99550.88;;;21.47;32.07
64616;BME280;51027;42.162;24.754;2022-09-20T12:14:15;99556.88;;;21.39;31.36
64616;BME280;51027;42.162;24.754;2022-09-20T12:16:44;99548.94;;;21.59;31.76
64616;BME280;51027;42.162;24.754;2022-09-20T12:24:30;99530.72;;;21.52;31.14
64616;BME280;51027;42.162;24.754;2022-09-20T12:30:18;99572.78;;;21.92;30.84
64616;BME280;51027;42.162;24.754;2022-09-20T12:32:49;99558.91;;;21.47;30.77
64616;BME280;51027;42.162;24.754;2022-09-20T12:41:09;99575.03;;;22.27;29.65
64616;BME280;51027;42.162;24.754;2022-09-20T12:43:46;99552.22;;;22.02;29.66
64616;BME280;51027;42.162;24.754;2022-09-20T12:52:04;99550.06;;;22.36;29.92
64616;BME280;51027;42.162;24.754;2022-09-20T12:54:50;99554.47;;;22.28;29.30
64616;BME280;51027;42.162;24.754;2022-09-20T12:57:23;99530.16;;;22.29;29.67
64616;BME280;51027;42.162;24.754;2022-09-20T12:59:55;99537.66;;;22.55;29.20
64616;BME280;51027;42.162;24.754;2022-09-20T13:03:09;99541.88;;;21.88;29.45
64616;BME280;51027;42.162;24.754;2022-09-20T13:05:45;99523.56;;;22.03;29.78
64616;BME280;51027;42.162;24.754;2022-09-20T13:10:40;99530.19;;;22.58;29.35
64616;BME280;51027;42.162;24.754;2022-09-20T13:16:01;99541.31;;;21.94;28.75
64616;BME280;51027;42.162;24.754;2022-09-20T13:18:30;99535.94;;;21.94;28.99
64616;BME280;51027;42.162;24.754;2022-09-20T13:20:57;99533.94;;;22.27;28.82
64616;BME280;51027;42.162;24.754;2022-09-20T13:23:28;99519.69;;;22.07;29.52
64616;BME280;51027;42.162;24.754;2022-09-20T13:25:56;99508.00;;;22.66;30.06
64616;BME280;51027;42.162;24.754;2022-09-20T13:28:31;99534.84;;;22.56;29.48
64616;BME280;51027;42.162;24.754;2022-09-20T13:33:45;99535.00;;;22.64;29.45
64616;BME280;51027;42.162;24.754;2022-09-20T13:36:11;99540.78;;;22.60;29.23
64616;BME280;51027;42.162;24.754;2022-09-20T13:38:37;99540.63;;;22.52;29.77
64616;BME280;51027;42.162;24.754;2022-09-20T13:41:05;99521.53;;;22.26;29.55
64616;BME280;51027;42.162;24.754;2022-09-20T13:43:42;99532.75;;;22.69;29.85
64616;BME280;51027;42.162;24.754;2022-09-20T13:46:13;99519.91;;;22.92;29.12
64616;BME280;51027;42.162;24.754;2022-09-20T13:48:46;99540.91;;;22.68;28.50
64616;BME280;51027;42.162;24.754;2022-09-20T13:51:17;99528.56;;;22.07;29.92
64616;BME280;51027;42.162;24.754;2022-09-20T13:53:43;99540.91;;;22.29;29.74
64616;BME280;51027;42.162;24.754;2022-09-20T13:56:22;99539.81;;;22.80;28.67
64616;BME280;51027;42.162;24.754;2022-09-20T13:58:50;99533.00;;;22.47;29.29
64616;BME280;51027;42.162;24.754;2022-09-20T14:01:47;99535.53;;;22.39;29.01
64616;BME280;51027;42.162;24.754;2022-09-20T14:04:19;99550.66;;;22.40;29.73
64616;BME280;51027;42.162;24.754;2022-09-20T14:06:46;99538.34;;;22.28;30.33
64616;BME280;51027;42.162;24.754;2022-09-20T14:09:20;99546.25;;;22.29;29.89
64616;BME280;51027;42.162;24.754;2022-09-20T14:11:48;99535.78;;;22.26;30.15
64616;BME280;51027;42.162;24.754;2022-09-20T14:14:14;99543.53;;;22.10;29.99
64616;BME280;51027;42.162;24.754;2022-09-20T14:16:41;99538.91;;;22.22;29.44
64616;BME280;51027;42.162;24.754;2022-09-20T14:19:13;99542.97;;;21.85;29.76
64616;BME280;51027;42.162;24.754;2022-09-20T14:21:40;99538.44;;;22.07;29.80
64616;BME280;51027;42.162;24.754;2022-09-20T14:26:36;99543.06;;;22.93;28.36
64616;BME280;51027;42.162;24.754;2022-09-20T14:31:54;99546.50;;;23.62;26.77
64616;BME280;51027;42.162;24.754;2022-09-20T14:34:21;99533.03;;;23.71;26.59
64616;BME280;51027;42.162;24.754;2022-09-20T14:36:47;99551.31;;;23.48;27.26
64616;BME280;51027;42.162;24.754;2022-09-20T14:39:15;99560.75;;;23.81;26.87
64616;BME280;51027;42.162;24.754;2022-09-20T14:41:42;99555.50;;;23.70;27.01
64616;BME280;51027;42.162;24.754;2022-09-20T14:44:34;99559.38;;;23.48;27.69
64616;BME280;51027;42.162;24.754;2022-09-20T14:47:13;99559.75;;;22.87;27.92
64616;BME280;51027;42.162;24.754;2022-09-20T14:49:41;99553.94;;;22.82;28.78
64616;BME280;51027;42.162;24.754;2022-09-20T14:57:28;99563.50;;;22.46;29.05
64616;BME280;51027;42.162;24.754;2022-09-20T14:59:54;99564.38;;;22.56;28.36
64616;BME280;51027;42.162;24.754;2022-09-20T15:02:21;99561.19;;;22.91;28.11
64616;BME280;51027;42.162;24.754;2022-09-20T15:04:56;99551.53;;;22.79;28.28
64616;BME280;51027;42.162;24.754;2022-09-20T15:07:24;99562.84;;;22.73;28.44
64616;BME280;51027;42.162;24.754;2022-09-20T15:09:50;99569.34;;;22.80;28.57
64616;BME280;51027;42.162;24.754;2022-09-20T15:12:19;99562.38;;;22.39;30.86
64616;BME280;51027;42.162;24.754;2022-09-20T15:14:46;99575.63;;;22.31;31.84
64616;BME280;51027;42.162;24.754;2022-09-20T15:17:20;99581.13;;;21.89;32.37
64616;BME280;51027;42.162;24.754;2022-09-20T15:19:47;99577.78;;;21.45;33.34
64616;BME280;51027;42.162;24.754;2022-09-20T15:22:13;99580.25;;;20.95;34.19
64616;BME280;51027;42.162;24.754;2022-09-20T15:24:39;99587.63;;;20.71;35.14
64616;BME280;51027;42.162;24.754;2022-09-20T15:27:05;99587.03;;;20.67;35.35
64616;BME280;51027;42.162;24.754;2022-09-20T15:29:30;99579.66;;;20.49;35.74
64616;BME280;51027;42.162;24.754;2022-09-20T15:31:56;99584.41;;;20.34;36.04
64616;BME280;51027;42.162;24.754;2022-09-20T15:34:22;99580.41;;;20.28;36.37
64616;BME280;51027;42.162;24.754;2022-09-20T15:36:48;99580.31;;;20.19;37.00
64616;BME280;51027;42.162;24.754;2022-09-20T15:39:15;99589.41;;;20.27;36.45
64616;BME280;51027;42.162;24.754;2022-09-20T15:41:41;99583.94;;;20.29;36.29
64616;BME280;51027;42.162;24.754;2022-09-20T15:44:09;99586.88;;;20.14;36.61
64616;BME280;51027;42.162;24.754;2022-09-20T15:46:35;99571.34;;;19.97;36.96
64616;BME280;51027;42.162;24.754;2022-09-20T15:49:02;99586.28;;;19.89;36.97
64616;BME280;51027;42.162;24.754;2022-09-20T15:51:38;99577.78;;;19.72;37.10
64616;BME280;51027;42.162;24.754;2022-09-20T15:54:12;99592.00;;;19.73;37.14
64616;BME280;51027;42.162;24.754;2022-09-20T15:56:38;99594.88;;;19.59;37.62
64616;BME280;51027;42.162;24.754;2022-09-20T15:59:09;99603.25;;;19.54;37.52
64616;BME280;51027;42.162;24.754;2022-09-20T16:04:07;99608.28;;;19.35;38.38
64616;BME280;51027;42.162;24.754;2022-09-20T16:06:36;99603.03;;;19.22;38.42
64616;BME280;51027;42.162;24.754;2022-09-20T16:09:02;99614.78;;;19.19;38.54
64616;BME280;51027;42.162;24.754;2022-09-20T16:11:28;99612.31;;;19.05;38.84
64616;BME280;51027;42.162;24.754;2022-09-20T16:13:54;99606.00;;;19.06;38.87
64616;BME280;51027;42.162;24.754;2022-09-20T16:16:21;99618.47;;;18.94;39.19
64616;BME280;51027;42.162;24.754;2022-09-20T16:18:47;99603.03;;;18.87;39.32
64616;BME280;51027;42.162;24.754;2022-09-20T16:21:31;99623.53;;;18.86;39.41
64616;BME280;51027;42.162;24.754;2022-09-20T16:23:57;99606.97;;;18.70;39.61
64616;BME280;51027;42.162;24.754;2022-09-20T16:26:24;99630.22;;;18.68;39.25
64616;BME280;51027;42.162;24.754;2022-09-20T16:28:51;99628.31;;;18.57;39.42
64616;BME280;51027;42.162;24.754;2022-09-20T16:31:41;99641.22;;;18.63;39.20
64616;BME280;51027;42.162;24.754;2022-09-20T16:34:20;99643.25;;;18.60;39.28
64616;BME280;51027;42.162;24.754;2022-09-20T16:36:49;99647.50;;;18.62;39.90
64616;BME280;51027;42.162;24.754;2022-09-20T16:39:16;99646.69;;;18.49;39.61
64616;BME280;51027;42.162;24.754;2022-09-20T16:41:44;99640.41;;;18.50;40.04
64616;BME280;51027;42.162;24.754;2022-09-20T16:44:11;99649.69;;;18.45;40.25
64616;BME280;51027;42.162;24.754;2022-09-20T16:46:37;99640.31;;;18.39;40.70
64616;BME280;51027;42.162;24.754;2022-09-20T16:49:04;99650.81;;;18.29;40.38
64616;BME280;51027;42.162;24.754;2022-09-20T16:51:32;99657.50;;;18.35;40.79
64616;BME280;51027;42.162;24.754;2022-09-20T16:54:03;99665.94;;;18.29;40.43
64616;BME280;51027;42.162;24.754;2022-09-20T16:56:31;99670.53;;;18.27;40.78
64616;BME280;51027;42.162;24.754;2022-09-20T16:59:01;99669.59;;;18.15;40.91
64616;BME280;51027;42.162;24.754;2022-09-20T17:01:27;99671.28;;;18.16;41.29
64616;BME280;51027;42.162;24.754;2022-09-20T17:03:54;99675.03;;;18.13;41.14
64616;BME280;51027;42.162;24.754;2022-09-20T17:06:20;99669.91;;;17.98;42.15
64616;BME280;51027;42.162;24.754;2022-09-20T17:08:52;99683.34;;;17.96;42.06
64616;BME280;51027;42.162;24.754;2022-09-20T17:11:20;99679.72;;;17.97;41.77
64616;BME280;51027;42.162;24.754;2022-09-20T17:13:50;99693.28;;;17.94;41.79
64616;BME280;51027;42.162;24.754;2022-09-20T17:16:21;99664.25;;;17.77;41.84
64616;BME280;51027;42.162;24.754;2022-09-20T17:18:51;99687.72;;;17.84;42.08
64616;BME280;51027;42.162;24.754;2022-09-20T17:21:18;99689.13;;;17.90;41.61
64616;BME280;51027;42.162;24.754;2022-09-20T17:23:46;99690.91;;;17.77;42.06
64616;BME280;51027;42.162;24.754;2022-09-20T17:26:15;99683.22;;;17.60;42.02
64616;BME280;51027;42.162;24.754;2022-09-20T17:28:43;99700.31;;;17.70;41.87
64616;BME280;51027;42.162;24.754;2022-09-20T17:31:11;99696.78;;;17.69;42.19
64616;BME280;51027;42.162;24.754;2022-09-20T17:33:37;99701.53;;;17.64;42.74
64616;BME280;51027;42.162;24.754;2022-09-20T17:36:05;99707.81;;;17.50;42.25
64616;BME280;51027;42.162;24.754;2022-09-20T17:38:32;99710.25;;;17.53;42.38
64616;BME280;51027;42.162;24.754;2022-09-20T17:41:05;99719.31;;;17.51;42.77
64616;BME280;51027;42.162;24.754;2022-09-20T17:43:37;99721.34;;;17.47;42.44
64616;BME280;51027;42.162;24.754;2022-09-20T17:46:17;99714.69;;;17.40;42.33
64616;BME280;51027;42.162;24.754;2022-09-20T17:48:52;99724.69;;;17.37;42.66
64616;BME280;51027;42.162;24.754;2022-09-20T17:51:21;99725.22;;;17.29;42.89
64616;BME280;51027;42.162;24.754;2022-09-20T17:53:47;99729.00;;;17.25;42.98
64616;BME280;51027;42.162;24.754;2022-09-20T17:56:13;99715.66;;;17.12;42.86
64616;BME280;51027;42.162;24.754;2022-09-20T17:58:39;99729.19;;;17.09;43.39
64616;BME280;51027;42.162;24.754;2022-09-20T18:01:17;99726.88;;;16.90;43.30
64616;BME280;51027;42.162;24.754;2022-09-20T18:03:45;99728.66;;;16.90;43.23
64616;BME280;51027;42.162;24.754;2022-09-20T18:06:12;99734.84;;;16.90;43.91
64616;BME280;51027;42.162;24.754;2022-09-20T18:08:38;99745.59;;;16.89;44.29
64616;BME280;51027;42.162;24.754;2022-09-20T18:11:04;99739.97;;;16.93;44.43
64616;BME280;51027;42.162;24.754;2022-09-20T18:13:29;99757.09;;;16.89;44.74
64616;BME280;51027;42.162;24.754;2022-09-20T18:15:55;99738.28;;;16.64;44.75
64616;BME280;51027;42.162;24.754;2022-09-20T18:18:21;99754.16;;;16.80;44.78
64616;BME280;51027;42.162;24.754;2022-09-20T18:20:46;99750.44;;;16.82;45.03
64616;BME280;51027;42.162;24.754;2022-09-20T18:23:12;99754.84;;;16.69;44.68
64616;BME280;51027;42.162;24.754;2022-09-20T18:25:38;99763.84;;;16.66;45.46
64616;BME280;51027;42.162;24.754;2022-09-20T18:28:22;99767.72;;;16.75;45.36
64616;BME280;51027;42.162;24.754;2022-09-20T18:30:58;99769.94;;;16.68;45.94
64616;BME280;51027;42.162;24.754;2022-09-20T18:33:24;99770.97;;;16.66;45.40
64616;BME280;51027;42.162;24.754;2022-09-20T18:35:50;99761.75;;;16.57;46.63
64616;BME280;51027;42.162;24.754;2022-09-20T18:38:16;99776.34;;;16.64;45.73